sensor_id;sensor_type;location;lat;lon;timestamp;P1;durP1;ratioP1;P2;durP2;ratioP2
68825;SDS011;55841;53.392;10.086;2023-01-28T00:01:11;7.45;;;1.90;;
68825;SDS011;55841;53.392;10.086;2023-01-28T00:03:38;5.20;;;1.52;;
68825;SDS011;55841;53.392;10.086;2023-01-28T00:06:05;7.95;;;1.50;;
68825;SDS011;55841;53.392;10.086;2023-01-28T00:08:32;4.78;;;1.50;;
68825;SDS011;55841;53.392;10.086;2023-01-28T00:10:59;2.78;;;1.60;;
68825;SDS011;55841;53.392;10.086;2023-01-28T00:16:24;5.55;;;1.55;;
68825;SDS011;55841;53.392;10.086;2023-01-28T00:18:43;4.88;;;1.55;;
68825;SDS011;55841;53.392;10.086;2023-01-28T00:21:09;7.90;;;1.70;;
68825;SDS011;55841;53.392;10.086;2023-01-28T00:23:37;7.40;;;1.60;;
68825;SDS011;55841;53.392;10.086;2023-01-28T00:26:08;4.18;;;1.50;;
68825;SDS011;55841;53.392;10.086;2023-01-28T00:28:36;8.70;;;1.70;;
68825;SDS011;55841;53.392;10.086;2023-01-28T00:31:05;5.57;;;1.45;;
68825;SDS011;55841;53.392;10.086;2023-01-28T00:33:38;4.07;;;1.60;;
68825;SDS011;55841;53.392;10.086;2023-01-28T00:36:04;7.38;;;2.25;;
68825;SDS011;55841;53.392;10.086;2023-01-28T00:38:31;6.05;;;1.60;;
68825;SDS011;55841;53.392;10.086;2023-01-28T00:41:10;5.53;;;1.67;;
68825;SDS011;55841;53.392;10.086;2023-01-28T00:43:37;4.35;;;1.50;;
68825;SDS011;55841;53.392;10.086;2023-01-28T00:46:04;4.85;;;1.27;;
68825;SDS011;55841;53.392;10.086;2023-01-28T00:48:30;4.05;;;1.63;;
68825;SDS011;55841;53.392;10.086;2023-01-28T00:50:56;4.72;;;1.55;;
68825;SDS011;55841;53.392;10.086;2023-01-28T00:53:21;3.90;;;2.05;;
68825;SDS011;55841;53.392;10.086;2023-01-28T00:55:47;6.93;;;1.75;;
68825;SDS011;55841;53.392;10.086;2023-01-28T00:58:12;4.95;;;1.55;;
68825;SDS011;55841;53.392;10.086;2023-01-28T01:00:38;3.00;;;1.30;;
68825;SDS011;55841;53.392;10.086;2023-01-28T01:03:03;5.95;;;1.75;;
68825;SDS011;55841;53.392;10.086;2023-01-28T01:05:29;5.32;;;1.70;;
68825;SDS011;55841;53.392;10.086;2023-01-28T01:07:54;6.95;;;1.90;;
68825;SDS011;55841;53.392;10.086;2023-01-28T01:10:20;6.47;;;1.80;;
68825;SDS011;55841;53.392;10.086;2023-01-28T01:12:46;6.57;;;1.60;;
68825;SDS011;55841;53.392;10.086;2023-01-28T01:15:13;4.82;;;1.70;;
68825;SDS011;55841;53.392;10.086;2023-01-28T01:17:39;5.05;;;1.25;;
68825;SDS011;55841;53.392;10.086;2023-01-28T01:20:07;2.38;;;1.23;;
68825;SDS011;55841;53.392;10.086;2023-01-28T01:22:36;4.55;;;2.05;;
68825;SDS011;55841;53.392;10.086;2023-01-28T01:25:03;2.13;;;1.05;;
68825;SDS011;55841;53.392;10.086;2023-01-28T01:27:30;3.13;;;1.50;;
68825;SDS011;55841;53.392;10.086;2023-01-28T01:32:21;3.70;;;1.17;;
68825;SDS011;55841;53.392;10.086;2023-01-28T01:34:47;5.05;;;1.20;;
68825;SDS011;55841;53.392;10.086;2023-01-28T01:37:13;4.82;;;1.30;;
68825;SDS011;55841;53.392;10.086;2023-01-28T01:39:38;2.20;;;1.00;;
68825;SDS011;55841;53.392;10.086;2023-01-28T01:42:04;1.90;;;1.08;;
68825;SDS011;55841;53.392;10.086;2023-01-28T01:47:21;5.32;;;1.20;;
68825;SDS011;55841;53.392;10.086;2023-01-28T01:49:53;2.22;;;1.00;;
68825;SDS011;55841;53.392;10.086;2023-01-28T01:52:21;3.92;;;1.13;;
68825;SDS011;55841;53.392;10.086;2023-01-28T01:54:54;3.03;;;1.17;;
68825;SDS011;55841;53.392;10.086;2023-01-28T01:57:23;4.97;;;1.27;;
68825;SDS011;55841;53.392;10.086;2023-01-28T01:59:54;5.28;;;1.20;;
68825;SDS011;55841;53.392;10.086;2023-01-28T02:02:22;3.70;;;1.08;;
68825;SDS011;55841;53.392;10.086;2023-01-28T02:04:48;5.35;;;1.20;;
68825;SDS011;55841;53.392;10.086;2023-01-28T02:07:14;3.42;;;1.15;;
68825;SDS011;55841;53.392;10.086;2023-01-28T02:09:42;2.15;;;0.75;;
68825;SDS011;55841;53.392;10.086;2023-01-28T02:12:09;3.55;;;1.40;;
68825;SDS011;55841;53.392;10.086;2023-01-28T02:14:40;2.53;;;1.40;;
68825;SDS011;55841;53.392;10.086;2023-01-28T02:17:08;3.83;;;1.08;;
68825;SDS011;55841;53.392;10.086;2023-01-28T02:19:36;2.60;;;1.25;;
68825;SDS011;55841;53.392;10.086;2023-01-28T02:22:16;3.80;;;1.15;;
68825;SDS011;55841;53.392;10.086;2023-01-28T02:30:39;2.35;;;1.05;;
68825;SDS011;55841;53.392;10.086;2023-01-28T02:33:09;3.58;;;1.10;;
68825;SDS011;55841;53.392;10.086;2023-01-28T02:38:15;5.15;;;1.40;;
68825;SDS011;55841;53.392;10.086;2023-01-28T02:41:03;4.97;;;1.20;;
68825;SDS011;55841;53.392;10.086;2023-01-28T02:43:33;3.50;;;0.90;;
68825;SDS011;55841;53.392;10.086;2023-01-28T02:48:50;7.15;;;1.60;;
68825;SDS011;55841;53.392;10.086;2023-01-28T02:51:28;2.35;;;1.10;;
68825;SDS011;55841;53.392;10.086;2023-01-28T02:53:59;3.25;;;1.40;;
68825;SDS011;55841;53.392;10.086;2023-01-28T02:56:54;5.75;;;1.30;;
68825;SDS011;55841;53.392;10.086;2023-01-28T02:59:38;5.63;;;1.45;;
68825;SDS011;55841;53.392;10.086;2023-01-28T03:07:38;3.80;;;1.30;;
68825;SDS011;55841;53.392;10.086;2023-01-28T03:10:05;4.40;;;1.05;;
68825;SDS011;55841;53.392;10.086;2023-01-28T03:12:34;3.78;;;1.40;;
68825;SDS011;55841;53.392;10.086;2023-01-28T03:15:14;6.57;;;1.33;;
68825;SDS011;55841;53.392;10.086;2023-01-28T03:17:44;4.05;;;1.20;;
68825;SDS011;55841;53.392;10.086;2023-01-28T03:20:19;2.63;;;1.30;;
68825;SDS011;55841;53.392;10.086;2023-01-28T03:22:46;3.28;;;1.10;;
68825;SDS011;55841;53.392;10.086;2023-01-28T03:25:17;5.75;;;1.33;;
68825;SDS011;55841;53.392;10.086;2023-01-28T03:27:48;4.40;;;1.30;;
68825;SDS011;55841;53.392;10.086;2023-01-28T03:30:26;3.60;;;1.30;;
68825;SDS011;55841;53.392;10.086;2023-01-28T03:32:58;4.97;;;1.17;;
68825;SDS011;55841;53.392;10.086;2023-01-28T03:35:24;4.35;;;1.35;;
68825;SDS011;55841;53.392;10.086;2023-01-28T03:37:54;4.20;;;1.30;;
68825;SDS011;55841;53.392;10.086;2023-01-28T03:40:21;3.38;;;1.30;;
68825;SDS011;55841;53.392;10.086;2023-01-28T03:42:46;5.10;;;1.20;;
68825;SDS011;55841;53.392;10.086;2023-01-28T03:45:12;6.95;;;1.80;;
68825;SDS011;55841;53.392;10.086;2023-01-28T03:47:37;1.92;;;1.00;;
68825;SDS011;55841;53.392;10.086;2023-01-28T03:50:03;2.15;;;1.10;;
68825;SDS011;55841;53.392;10.086;2023-01-28T03:52:30;2.17;;;0.85;;
68825;SDS011;55841;53.392;10.086;2023-01-28T03:54:56;3.33;;;1.33;;
68825;SDS011;55841;53.392;10.086;2023-01-28T03:57:23;4.43;;;1.23;;
68825;SDS011;55841;53.392;10.086;2023-01-28T03:59:51;4.15;;;1.50;;
68825;SDS011;55841;53.392;10.086;2023-01-28T04:02:17;2.78;;;1.20;;
68825;SDS011;55841;53.392;10.086;2023-01-28T04:04:43;3.00;;;1.20;;
68825;SDS011;55841;53.392;10.086;2023-01-28T04:07:09;4.13;;;1.17;;
68825;SDS011;55841;53.392;10.086;2023-01-28T04:09:36;4.57;;;1.40;;
68825;SDS011;55841;53.392;10.086;2023-01-28T04:12:02;3.35;;;1.27;;
68825;SDS011;55841;53.392;10.086;2023-01-28T04:14:28;5.68;;;1.55;;
68825;SDS011;55841;53.392;10.086;2023-01-28T04:16:54;1.70;;;0.95;;
68825;SDS011;55841;53.392;10.086;2023-01-28T04:19:20;2.35;;;1.05;;
68825;SDS011;55841;53.392;10.086;2023-01-28T04:21:46;3.28;;;1.10;;
68825;SDS011;55841;53.392;10.086;2023-01-28T04:24:12;3.03;;;1.20;;
68825;SDS011;55841;53.392;10.086;2023-01-28T04:26:38;3.03;;;1.20;;
68825;SDS011;55841;53.392;10.086;2023-01-28T04:29:04;4.22;;;1.13;;
68825;SDS011;55841;53.392;10.086;2023-01-28T04:31:30;3.20;;;0.85;;
68825;SDS011;55841;53.392;10.086;2023-01-28T04:33:55;5.20;;;1.30;;
68825;SDS011;55841;53.392;10.086;2023-01-28T04:36:21;3.35;;;0.90;;
68825;SDS011;55841;53.392;10.086;2023-01-28T04:38:47;3.75;;;1.00;;
68825;SDS011;55841;53.392;10.086;2023-01-28T04:41:13;4.03;;;1.27;;
68825;SDS011;55841;53.392;10.086;2023-01-28T04:43:38;1.83;;;0.73;;
68825;SDS011;55841;53.392;10.086;2023-01-28T04:46:04;3.03;;;0.82;;
68825;SDS011;55841;53.392;10.086;2023-01-28T04:48:30;4.03;;;1.20;;
68825;SDS011;55841;53.392;10.086;2023-01-28T04:50:55;3.03;;;1.10;;
68825;SDS011;55841;53.392;10.086;2023-01-28T04:53:21;3.38;;;1.10;;
68825;SDS011;55841;53.392;10.086;2023-01-28T04:55:47;3.92;;;1.08;;
68825;SDS011;55841;53.392;10.086;2023-01-28T04:58:13;5.45;;;1.65;;
68825;SDS011;55841;53.392;10.086;2023-01-28T05:00:38;3.42;;;1.25;;
68825;SDS011;55841;53.392;10.086;2023-01-28T05:03:04;2.05;;;0.85;;
68825;SDS011;55841;53.392;10.086;2023-01-28T05:05:29;2.67;;;1.15;;
68825;SDS011;55841;53.392;10.086;2023-01-28T05:07:55;4.00;;;1.23;;
68825;SDS011;55841;53.392;10.086;2023-01-28T05:10:22;4.38;;;1.42;;
68825;SDS011;55841;53.392;10.086;2023-01-28T05:12:48;1.83;;;0.98;;
68825;SDS011;55841;53.392;10.086;2023-01-28T05:15:17;2.58;;;1.00;;
68825;SDS011;55841;53.392;10.086;2023-01-28T05:17:44;1.33;;;0.90;;
68825;SDS011;55841;53.392;10.086;2023-01-28T05:20:10;3.97;;;1.10;;
68825;SDS011;55841;53.392;10.086;2023-01-28T05:22:37;3.05;;;1.20;;
68825;SDS011;55841;53.392;10.086;2023-01-28T05:25:03;2.78;;;1.10;;
68825;SDS011;55841;53.392;10.086;2023-01-28T05:29:56;3.10;;;1.20;;
68825;SDS011;55841;53.392;10.086;2023-01-28T05:32:21;4.28;;;1.08;;
68825;SDS011;55841;53.392;10.086;2023-01-28T05:34:47;2.72;;;1.10;;
68825;SDS011;55841;53.392;10.086;2023-01-28T05:37:12;2.45;;;0.85;;
68825;SDS011;55841;53.392;10.086;2023-01-28T05:39:38;2.35;;;1.30;;
68825;SDS011;55841;53.392;10.086;2023-01-28T05:42:03;3.53;;;1.20;;
68825;SDS011;55841;53.392;10.086;2023-01-28T05:44:29;2.55;;;1.10;;
68825;SDS011;55841;53.392;10.086;2023-01-28T05:46:54;3.70;;;1.40;;
68825;SDS011;55841;53.392;10.086;2023-01-28T05:49:20;2.38;;;1.20;;
68825;SDS011;55841;53.392;10.086;2023-01-28T05:51:45;2.92;;;1.13;;
68825;SDS011;55841;53.392;10.086;2023-01-28T05:54:11;4.47;;;1.10;;
68825;SDS011;55841;53.392;10.086;2023-01-28T05:56:36;4.22;;;1.27;;
68825;SDS011;55841;53.392;10.086;2023-01-28T05:59:02;5.07;;;1.40;;
68825;SDS011;55841;53.392;10.086;2023-01-28T06:01:28;3.67;;;1.15;;
68825;SDS011;55841;53.392;10.086;2023-01-28T06:03:54;5.50;;;1.48;;
68825;SDS011;55841;53.392;10.086;2023-01-28T06:06:19;4.55;;;1.33;;
68825;SDS011;55841;53.392;10.086;2023-01-28T06:08:45;4.53;;;1.45;;
68825;SDS011;55841;53.392;10.086;2023-01-28T06:11:10;4.53;;;1.25;;
68825;SDS011;55841;53.392;10.086;2023-01-28T06:13:36;3.45;;;1.40;;
68825;SDS011;55841;53.392;10.086;2023-01-28T06:16:02;7.28;;;1.58;;
68825;SDS011;55841;53.392;10.086;2023-01-28T06:18:28;3.42;;;1.50;;
68825;SDS011;55841;53.392;10.086;2023-01-28T06:20:53;1.63;;;1.05;;
68825;SDS011;55841;53.392;10.086;2023-01-28T06:23:19;2.72;;;1.27;;
68825;SDS011;55841;53.392;10.086;2023-01-28T06:25:45;4.82;;;1.40;;
68825;SDS011;55841;53.392;10.086;2023-01-28T06:28:10;5.95;;;1.20;;
68825;SDS011;55841;53.392;10.086;2023-01-28T06:30:36;4.40;;;1.40;;
68825;SDS011;55841;53.392;10.086;2023-01-28T06:33:01;2.72;;;1.20;;
68825;SDS011;55841;53.392;10.086;2023-01-28T06:35:27;3.42;;;1.50;;
68825;SDS011;55841;53.392;10.086;2023-01-28T06:37:53;4.25;;;1.27;;
68825;SDS011;55841;53.392;10.086;2023-01-28T06:40:19;2.88;;;1.30;;
68825;SDS011;55841;53.392;10.086;2023-01-28T06:42:45;5.40;;;1.33;;
68825;SDS011;55841;53.392;10.086;2023-01-28T06:45:11;4.88;;;1.73;;
68825;SDS011;55841;53.392;10.086;2023-01-28T06:47:39;7.00;;;1.80;;
68825;SDS011;55841;53.392;10.086;2023-01-28T06:50:05;5.60;;;1.60;;
68825;SDS011;55841;53.392;10.086;2023-01-28T06:52:31;2.97;;;1.33;;
68825;SDS011;55841;53.392;10.086;2023-01-28T06:54:56;4.53;;;1.65;;
68825;SDS011;55841;53.392;10.086;2023-01-28T06:57:22;5.00;;;1.40;;
68825;SDS011;55841;53.392;10.086;2023-01-28T06:59:47;6.22;;;1.52;;
68825;SDS011;55841;53.392;10.086;2023-01-28T07:02:13;5.63;;;1.50;;
68825;SDS011;55841;53.392;10.086;2023-01-28T07:04:39;5.35;;;1.92;;
68825;SDS011;55841;53.392;10.086;2023-01-28T07:07:04;6.25;;;1.67;;
68825;SDS011;55841;53.392;10.086;2023-01-28T07:09:30;5.25;;;1.80;;
68825;SDS011;55841;53.392;10.086;2023-01-28T07:12:01;4.80;;;1.23;;
68825;SDS011;55841;53.392;10.086;2023-01-28T07:17:27;5.93;;;1.65;;
68825;SDS011;55841;53.392;10.086;2023-01-28T07:19:52;3.85;;;1.63;;
68825;SDS011;55841;53.392;10.086;2023-01-28T07:22:18;4.60;;;1.58;;
68825;SDS011;55841;53.392;10.086;2023-01-28T07:24:44;2.80;;;1.20;;
68825;SDS011;55841;53.392;10.086;2023-01-28T07:27:11;4.20;;;1.45;;
68825;SDS011;55841;53.392;10.086;2023-01-28T07:29:36;2.97;;;1.20;;
68825;SDS011;55841;53.392;10.086;2023-01-28T07:32:02;2.83;;;1.38;;
68825;SDS011;55841;53.392;10.086;2023-01-28T07:34:28;4.90;;;1.25;;
68825;SDS011;55841;53.392;10.086;2023-01-28T07:36:53;6.13;;;1.70;;
68825;SDS011;55841;53.392;10.086;2023-01-28T07:39:19;5.75;;;1.40;;
68825;SDS011;55841;53.392;10.086;2023-01-28T07:41:44;4.82;;;1.45;;
68825;SDS011;55841;53.392;10.086;2023-01-28T07:44:10;3.75;;;1.27;;
68825;SDS011;55841;53.392;10.086;2023-01-28T07:46:35;6.05;;;1.83;;
68825;SDS011;55841;53.392;10.086;2023-01-28T07:49:01;5.55;;;1.63;;
68825;SDS011;55841;53.392;10.086;2023-01-28T07:51:26;10.13;;;2.53;;
68825;SDS011;55841;53.392;10.086;2023-01-28T07:53:52;5.25;;;1.80;;
68825;SDS011;55841;53.392;10.086;2023-01-28T07:56:17;6.28;;;1.77;;
68825;SDS011;55841;53.392;10.086;2023-01-28T07:58:43;6.75;;;2.05;;
68825;SDS011;55841;53.392;10.086;2023-01-28T08:01:09;4.45;;;1.80;;
68825;SDS011;55841;53.392;10.086;2023-01-28T08:03:34;7.07;;;1.88;;
68825;SDS011;55841;53.392;10.086;2023-01-28T08:06:00;7.20;;;2.00;;
68825;SDS011;55841;53.392;10.086;2023-01-28T08:08:26;5.97;;;1.90;;
68825;SDS011;55841;53.392;10.086;2023-01-28T08:10:51;6.63;;;2.20;;
68825;SDS011;55841;53.392;10.086;2023-01-28T08:13:18;6.50;;;1.73;;
68825;SDS011;55841;53.392;10.086;2023-01-28T08:15:44;6.38;;;2.00;;
68825;SDS011;55841;53.392;10.086;2023-01-28T08:18:11;7.45;;;1.92;;
68825;SDS011;55841;53.392;10.086;2023-01-28T08:20:39;6.40;;;1.90;;
68825;SDS011;55841;53.392;10.086;2023-01-28T08:23:06;4.10;;;1.63;;
68825;SDS011;55841;53.392;10.086;2023-01-28T08:25:41;6.03;;;1.98;;
68825;SDS011;55841;53.392;10.086;2023-01-28T08:28:08;8.27;;;1.80;;
68825;SDS011;55841;53.392;10.086;2023-01-28T08:30:34;5.88;;;2.50;;
68825;SDS011;55841;53.392;10.086;2023-01-28T08:35:26;9.27;;;1.92;;
68825;SDS011;55841;53.392;10.086;2023-01-28T08:37:52;4.30;;;1.85;;
68825;SDS011;55841;53.392;10.086;2023-01-28T08:40:18;5.78;;;1.92;;
68825;SDS011;55841;53.392;10.086;2023-01-28T08:42:50;5.35;;;2.20;;
68825;SDS011;55841;53.392;10.086;2023-01-28T08:45:32;6.68;;;2.30;;
68825;SDS011;55841;53.392;10.086;2023-01-28T08:47:59;6.25;;;2.08;;
68825;SDS011;55841;53.392;10.086;2023-01-28T08:50:28;7.57;;;2.63;;
68825;SDS011;55841;53.392;10.086;2023-01-28T08:52:55;8.77;;;2.35;;
68825;SDS011;55841;53.392;10.086;2023-01-28T08:55:23;7.30;;;2.75;;
68825;SDS011;55841;53.392;10.086;2023-01-28T08:57:48;6.63;;;2.17;;
68825;SDS011;55841;53.392;10.086;2023-01-28T09:00:14;10.30;;;3.03;;
68825;SDS011;55841;53.392;10.086;2023-01-28T09:02:40;9.23;;;3.30;;
68825;SDS011;55841;53.392;10.086;2023-01-28T09:05:06;7.45;;;3.00;;
68825;SDS011;55841;53.392;10.086;2023-01-28T09:07:33;7.07;;;2.80;;
68825;SDS011;55841;53.392;10.086;2023-01-28T09:09:59;12.38;;;3.13;;
68825;SDS011;55841;53.392;10.086;2023-01-28T09:12:25;8.20;;;2.92;;
68825;SDS011;55841;53.392;10.086;2023-01-28T09:14:50;8.18;;;2.75;;
68825;SDS011;55841;53.392;10.086;2023-01-28T09:17:16;8.68;;;3.42;;
68825;SDS011;55841;53.392;10.086;2023-01-28T09:19:42;10.63;;;3.25;;
68825;SDS011;55841;53.392;10.086;2023-01-28T09:22:08;8.05;;;3.03;;
68825;SDS011;55841;53.392;10.086;2023-01-28T09:24:33;9.65;;;3.10;;
68825;SDS011;55841;53.392;10.086;2023-01-28T09:26:59;10.23;;;3.30;;
68825;SDS011;55841;53.392;10.086;2023-01-28T09:29:25;10.30;;;4.13;;
68825;SDS011;55841;53.392;10.086;2023-01-28T09:31:50;8.55;;;3.40;;
68825;SDS011;55841;53.392;10.086;2023-01-28T09:34:16;10.23;;;3.80;;
68825;SDS011;55841;53.392;10.086;2023-01-28T09:36:41;11.60;;;3.63;;
68825;SDS011;55841;53.392;10.086;2023-01-28T09:39:07;10.90;;;4.10;;
68825;SDS011;55841;53.392;10.086;2023-01-28T09:47:33;10.05;;;3.92;;
68825;SDS011;55841;53.392;10.086;2023-01-28T09:50:05;10.68;;;4.25;;
68825;SDS011;55841;53.392;10.086;2023-01-28T09:52:34;10.02;;;4.03;;
68825;SDS011;55841;53.392;10.086;2023-01-28T09:55:09;12.32;;;4.60;;
68825;SDS011;55841;53.392;10.086;2023-01-28T09:57:51;13.07;;;4.40;;
68825;SDS011;55841;53.392;10.086;2023-01-28T10:00:18;11.75;;;4.65;;
68825;SDS011;55841;53.392;10.086;2023-01-28T10:02:54;14.98;;;5.07;;
68825;SDS011;55841;53.392;10.086;2023-01-28T10:18:41;10.70;;;4.57;;
68825;SDS011;55841;53.392;10.086;2023-01-28T10:24:50;10.20;;;4.30;;
68825;SDS011;55841;53.392;10.086;2023-01-28T10:26:55;10.88;;;4.82;;
68825;SDS011;55841;53.392;10.086;2023-01-28T10:29:22;9.23;;;4.22;;
68825;SDS011;55841;53.392;10.086;2023-01-28T10:31:58;11.30;;;4.97;;
68825;SDS011;55841;53.392;10.086;2023-01-28T10:34:24;9.75;;;4.43;;
68825;SDS011;55841;53.392;10.086;2023-01-28T10:36:50;10.52;;;4.30;;
68825;SDS011;55841;53.392;10.086;2023-01-28T10:39:17;10.07;;;4.47;;
68825;SDS011;55841;53.392;10.086;2023-01-28T10:41:45;13.38;;;4.55;;
68825;SDS011;55841;53.392;10.086;2023-01-28T10:44:27;11.25;;;4.55;;
68825;SDS011;55841;53.392;10.086;2023-01-28T10:47:00;11.98;;;4.85;;
68825;SDS011;55841;53.392;10.086;2023-01-28T10:49:48;10.93;;;4.72;;
68825;SDS011;55841;53.392;10.086;2023-01-28T10:52:18;9.30;;;4.45;;
68825;SDS011;55841;53.392;10.086;2023-01-28T10:54:43;12.40;;;4.60;;
68825;SDS011;55841;53.392;10.086;2023-01-28T10:57:10;9.40;;;4.40;;
68825;SDS011;55841;53.392;10.086;2023-01-28T10:59:40;12.10;;;4.72;;
68825;SDS011;55841;53.392;10.086;2023-01-28T11:07:39;8.48;;;3.78;;
68825;SDS011;55841;53.392;10.086;2023-01-28T11:10:21;9.38;;;3.90;;
68825;SDS011;55841;53.392;10.086;2023-01-28T11:12:56;9.15;;;3.95;;
68825;SDS011;55841;53.392;10.086;2023-01-28T11:17:50;10.07;;;3.70;;
68825;SDS011;55841;53.392;10.086;2023-01-28T11:20:23;11.75;;;4.03;;
68825;SDS011;55841;53.392;10.086;2023-01-28T11:22:50;11.07;;;4.10;;
68825;SDS011;55841;53.392;10.086;2023-01-28T11:27:55;9.95;;;4.00;;
68825;SDS011;55841;53.392;10.086;2023-01-28T11:32:53;10.25;;;3.60;;
68825;SDS011;55841;53.392;10.086;2023-01-28T11:35:38;10.05;;;3.50;;
68825;SDS011;55841;53.392;10.086;2023-01-28T11:38:10;9.63;;;3.50;;
68825;SDS011;55841;53.392;10.086;2023-01-28T11:40:48;11.20;;;3.45;;
68825;SDS011;55841;53.392;10.086;2023-01-28T11:43:14;10.27;;;3.78;;
68825;SDS011;55841;53.392;10.086;2023-01-28T11:46:26;10.07;;;3.30;;
68825;SDS011;55841;53.392;10.086;2023-01-28T11:51:34;11.32;;;4.07;;
68825;SDS011;55841;53.392;10.086;2023-01-28T11:54:13;7.78;;;3.30;;
68825;SDS011;55841;53.392;10.086;2023-01-28T12:10:56;8.27;;;3.42;;
68825;SDS011;55841;53.392;10.086;2023-01-28T12:16:27;10.23;;;3.60;;
68825;SDS011;55841;53.392;10.086;2023-01-28T12:32:35;7.85;;;3.13;;
68825;SDS011;55841;53.392;10.086;2023-01-28T12:35:34;10.70;;;3.50;;
68825;SDS011;55841;53.392;10.086;2023-01-28T12:38:15;12.70;;;4.15;;
68825;SDS011;55841;53.392;10.086;2023-01-28T12:41:03;8.65;;;3.55;;
68825;SDS011;55841;53.392;10.086;2023-01-28T12:46:31;11.50;;;3.72;;
68825;SDS011;55841;53.392;10.086;2023-01-28T12:49:20;9.85;;;3.15;;
68825;SDS011;55841;53.392;10.086;2023-01-28T12:56:57;9.13;;;3.50;;
68825;SDS011;55841;53.392;10.086;2023-01-28T13:04:41;10.10;;;3.97;;
68825;SDS011;55841;53.392;10.086;2023-01-28T13:07:23;10.25;;;4.25;;
68825;SDS011;55841;53.392;10.086;2023-01-28T13:09:52;9.07;;;4.00;;
68825;SDS011;55841;53.392;10.086;2023-01-28T13:12:24;10.20;;;3.90;;
68825;SDS011;55841;53.392;10.086;2023-01-28T13:14:50;10.15;;;3.65;;
68825;SDS011;55841;53.392;10.086;2023-01-28T13:17:27;10.38;;;4.10;;
68825;SDS011;55841;53.392;10.086;2023-01-28T13:19:53;10.18;;;4.28;;
68825;SDS011;55841;53.392;10.086;2023-01-28T13:22:30;10.75;;;4.20;;
68825;SDS011;55841;53.392;10.086;2023-01-28T13:25:10;12.48;;;4.28;;
68825;SDS011;55841;53.392;10.086;2023-01-28T13:27:42;12.57;;;3.60;;
68825;SDS011;55841;53.392;10.086;2023-01-28T13:30:23;10.80;;;4.13;;
68825;SDS011;55841;53.392;10.086;2023-01-28T13:33:04;12.18;;;4.65;;
68825;SDS011;55841;53.392;10.086;2023-01-28T13:35:38;11.00;;;4.28;;
68825;SDS011;55841;53.392;10.086;2023-01-28T13:38:05;13.93;;;4.55;;
68825;SDS011;55841;53.392;10.086;2023-01-28T13:40:41;13.40;;;4.28;;
68825;SDS011;55841;53.392;10.086;2023-01-28T13:43:27;11.80;;;4.35;;
68825;SDS011;55841;53.392;10.086;2023-01-28T13:46:01;12.48;;;5.35;;
68825;SDS011;55841;53.392;10.086;2023-01-28T13:48:44;11.77;;;5.57;;
68825;SDS011;55841;53.392;10.086;2023-01-28T13:51:21;14.00;;;5.25;;
68825;SDS011;55841;53.392;10.086;2023-01-28T13:54:03;12.68;;;5.25;;
68825;SDS011;55841;53.392;10.086;2023-01-28T13:56:40;12.77;;;5.15;;
68825;SDS011;55841;53.392;10.086;2023-01-28T14:02:50;16.08;;;4.95;;
68825;SDS011;55841;53.392;10.086;2023-01-28T14:05:53;14.20;;;5.43;;
68825;SDS011;55841;53.392;10.086;2023-01-28T14:10:46;15.15;;;6.50;;
68825;SDS011;55841;53.392;10.086;2023-01-28T14:15:55;15.25;;;6.18;;
68825;SDS011;55841;53.392;10.086;2023-01-28T14:18:34;15.77;;;6.25;;
68825;SDS011;55841;53.392;10.086;2023-01-28T14:21:10;13.13;;;6.55;;
68825;SDS011;55841;53.392;10.086;2023-01-28T14:23:43;15.68;;;6.13;;
68825;SDS011;55841;53.392;10.086;2023-01-28T14:29:14;20.70;;;7.25;;
68825;SDS011;55841;53.392;10.086;2023-01-28T14:32:10;18.15;;;7.15;;
68825;SDS011;55841;53.392;10.086;2023-01-28T14:34:40;16.65;;;7.28;;
68825;SDS011;55841;53.392;10.086;2023-01-28T14:37:07;19.20;;;8.05;;
68825;SDS011;55841;53.392;10.086;2023-01-28T14:39:43;18.23;;;8.20;;
68825;SDS011;55841;53.392;10.086;2023-01-28T14:42:12;16.60;;;7.10;;
68825;SDS011;55841;53.392;10.086;2023-01-28T14:44:44;17.45;;;7.35;;
68825;SDS011;55841;53.392;10.086;2023-01-28T14:49:45;18.92;;;8.60;;
68825;SDS011;55841;53.392;10.086;2023-01-28T14:58:02;18.40;;;8.15;;
68825;SDS011;55841;53.392;10.086;2023-01-28T15:00:31;16.65;;;7.32;;
68825;SDS011;55841;53.392;10.086;2023-01-28T15:02:58;19.67;;;7.88;;
68825;SDS011;55841;53.392;10.086;2023-01-28T15:05:26;20.45;;;8.10;;
68825;SDS011;55841;53.392;10.086;2023-01-28T15:07:53;19.67;;;7.97;;
68825;SDS011;55841;53.392;10.086;2023-01-28T15:10:40;17.27;;;7.82;;
68825;SDS011;55841;53.392;10.086;2023-01-28T15:15:37;19.58;;;8.93;;
68825;SDS011;55841;53.392;10.086;2023-01-28T15:18:09;20.35;;;8.68;;
68825;SDS011;55841;53.392;10.086;2023-01-28T15:20:36;20.65;;;9.10;;
68825;SDS011;55841;53.392;10.086;2023-01-28T15:23:02;20.92;;;8.65;;
68825;SDS011;55841;53.392;10.086;2023-01-28T15:25:31;19.30;;;8.32;;
68825;SDS011;55841;53.392;10.086;2023-01-28T15:27:58;20.23;;;8.75;;
68825;SDS011;55841;53.392;10.086;2023-01-28T15:30:29;19.90;;;8.52;;
68825;SDS011;55841;53.392;10.086;2023-01-28T15:33:00;20.00;;;8.15;;
68825;SDS011;55841;53.392;10.086;2023-01-28T15:35:27;19.63;;;7.60;;
68825;SDS011;55841;53.392;10.086;2023-01-28T15:37:53;20.17;;;9.43;;
68825;SDS011;55841;53.392;10.086;2023-01-28T15:40:19;20.83;;;8.75;;
68825;SDS011;55841;53.392;10.086;2023-01-28T15:42:46;20.67;;;8.88;;
68825;SDS011;55841;53.392;10.086;2023-01-28T15:45:19;18.48;;;7.97;;
68825;SDS011;55841;53.392;10.086;2023-01-28T15:47:47;20.75;;;9.10;;
68825;SDS011;55841;53.392;10.086;2023-01-28T15:50:20;21.20;;;8.38;;
68825;SDS011;55841;53.392;10.086;2023-01-28T15:52:47;20.75;;;8.85;;
68825;SDS011;55841;53.392;10.086;2023-01-28T15:55:32;22.27;;;9.00;;
68825;SDS011;55841;53.392;10.086;2023-01-28T15:58:16;16.13;;;7.55;;
68825;SDS011;55841;53.392;10.086;2023-01-28T16:00:49;21.88;;;9.13;;
68825;SDS011;55841;53.392;10.086;2023-01-28T16:03:27;19.70;;;8.50;;
68825;SDS011;55841;53.392;10.086;2023-01-28T16:05:59;20.85;;;9.02;;
68825;SDS011;55841;53.392;10.086;2023-01-28T16:08:39;18.52;;;8.70;;
68825;SDS011;55841;53.392;10.086;2023-01-28T16:11:10;20.45;;;9.15;;
68825;SDS011;55841;53.392;10.086;2023-01-28T16:13:39;19.20;;;8.93;;
68825;SDS011;55841;53.392;10.086;2023-01-28T16:16:07;19.98;;;8.80;;
68825;SDS011;55841;53.392;10.086;2023-01-28T16:18:40;18.83;;;8.77;;
68825;SDS011;55841;53.392;10.086;2023-01-28T16:21:10;19.88;;;8.75;;
68825;SDS011;55841;53.392;10.086;2023-01-28T16:26:23;21.65;;;8.82;;
68825;SDS011;55841;53.392;10.086;2023-01-28T16:28:50;18.83;;;8.73;;
68825;SDS011;55841;53.392;10.086;2023-01-28T16:31:16;19.67;;;7.90;;
68825;SDS011;55841;53.392;10.086;2023-01-28T16:33:42;18.00;;;8.68;;
68825;SDS011;55841;53.392;10.086;2023-01-28T16:36:08;18.75;;;8.45;;
68825;SDS011;55841;53.392;10.086;2023-01-28T16:38:36;21.10;;;8.82;;
68825;SDS011;55841;53.392;10.086;2023-01-28T16:41:01;21.38;;;9.57;;
68825;SDS011;55841;53.392;10.086;2023-01-28T16:43:27;19.83;;;8.77;;
68825;SDS011;55841;53.392;10.086;2023-01-28T16:45:52;21.20;;;9.07;;
68825;SDS011;55841;53.392;10.086;2023-01-28T16:48:18;18.90;;;8.45;;
68825;SDS011;55841;53.392;10.086;2023-01-28T16:50:43;18.55;;;7.75;;
68825;SDS011;55841;53.392;10.086;2023-01-28T16:53:29;21.83;;;9.13;;
68825;SDS011;55841;53.392;10.086;2023-01-28T16:55:57;19.95;;;8.80;;
68825;SDS011;55841;53.392;10.086;2023-01-28T16:58:24;22.60;;;8.98;;
68825;SDS011;55841;53.392;10.086;2023-01-28T17:00:51;23.70;;;8.95;;
68825;SDS011;55841;53.392;10.086;2023-01-28T17:03:16;21.95;;;9.68;;